Aeroporto :
LOGIN :

Iscrizione | Disclaimer

   EN    FR    IT 

 










Sommario :    VFR   VFR Marginale   IFR   IFR Intensivo   IFR Molto Intensivo
Visibilità : 
Base nubi : 
>= 8 km
>= 3000ft
5 / 8 km
1000 / 3000 ft
1500m / 5 km
500 / 1000 ft
800 / 1500m
200 / 500 ft
< 800m
< 200 ft
Simboli :   Temporali  Nebbia  Neve Forte  Precipitazioni Forti  Vento > 20 kt
SIGMETs :   Varie  Temporali  Ghiacco  Turbolenza  Onda orograficha  Ceneri Vulcaniche






- Altitudine del aeroporto : 22 ft
- Codice IATA : TUN


DTTA - Tunis Carthage

ULTIMO METAR :
  • 171500Z 12006KT 060V180 9999 FEW040 18/06 Q1025

METARs OBSOLETI :
  • 171430Z 09003KT 040V160 9999 FEW040 19/05 Q1025
  • 171400Z 11004KT 040V180 9999 FEW040 19/05 Q1025
  • 171330Z VRB03KT 9999 FEW040 19/06 Q1026
  • 171300Z 19005KT 110V240 9999 FEW040 19/06 Q1026
  • 171230Z VRB03KT 9999 FEW040 19/08 Q1027

TAF TAF DTTA
Valido dal 17 a 12 ore il 18 a 12 ore UTC


171100Z 1712/1812 11006KT CAVOK
BECMG 1722/1724 VRB02KT
PROB30 1804/1807 3000 BR FEW016
BECMG 1804/1806 20005KT
BECMG 1810/1812 30015KT 8000 FEW020



MetMap, La meteo Aeronautica in un colpo d'occhio ! - Copyright ORBIFLY Dicembre 2007 - Disclaimer

ORBIFLY MET'MAP TEAM :

Programmazione e sviluppo : Alexandra Zaïnal
Concezione : Baudouin d'Aumeries
Aiuto per la programmazione : Marc-Olivier Méhu
Supporto tecnico e logistico : Manuel Goepfert
Aiuto per la traduzione : Arnaldo La Scala

Contatto : metmap@orbifly.com




FONTI E CREDITI :

   NOAA